createdAt,value
2022-08-01T00:02:22.785Z,28.20
2022-08-01T00:05:25.155Z,28.20
2022-08-01T00:08:27.348Z,28.20
2022-08-01T00:11:29.477Z,28.20
2022-08-01T00:14:32.804Z,28.20
2022-08-01T00:17:35.065Z,28.10
2022-08-01T00:20:37.216Z,28.10
2022-08-01T00:23:39.350Z,28.10
2022-08-01T00:26:41.496Z,28.10
2022-08-01T00:30:09.702Z,28.10
2022-08-01T00:33:07.632Z,28.10
2022-08-01T00:36:09.795Z,28.10
2022-08-01T00:39:11.977Z,28.10
2022-08-01T00:42:14.562Z,28.10
2022-08-01T00:45:16.807Z,28.10
2022-08-01T00:48:18.965Z,28.10
2022-08-01T00:51:21.181Z,28.00
2022-08-01T00:54:25.436Z,28.00
2022-08-01T00:58:01.397Z,28.00
2022-08-01T01:00:52.948Z,28.00
2022-08-01T01:03:59.217Z,28.00
2022-08-01T01:07:19.029Z,28.00
2022-08-01T01:10:31.975Z,28.00
2022-08-01T01:13:50.362Z,28.00
2022-08-01T01:16:54.375Z,28.00
2022-08-01T01:20:00.809Z,28.00
2022-08-01T01:23:40.254Z,27.90
2022-08-01T01:27:03.141Z,27.90
2022-08-01T01:30:07.192Z,27.90
2022-08-01T01:33:12.403Z,27.90
2022-08-01T01:36:17.017Z,27.90
2022-08-01T01:39:21.460Z,27.90
2022-08-01T01:42:26.756Z,27.90
2022-08-01T01:45:30.552Z,27.90
2022-08-01T01:48:34.545Z,27.90
2022-08-01T01:51:38.381Z,27.90
2022-08-01T01:54:48.875Z,27.90
2022-08-01T01:57:52.843Z,27.90
2022-08-01T02:00:57.782Z,27.90
2022-08-01T02:04:03.846Z,27.90
2022-08-01T02:07:09.987Z,27.80
2022-08-01T02:10:13.156Z,27.80
2022-08-01T02:13:17.499Z,27.80
2022-08-01T02:16:26.302Z,27.80
2022-08-01T02:19:28.844Z,27.80
2022-08-01T02:22:44.066Z,27.80
2022-08-01T02:26:10.235Z,27.80
2022-08-01T02:29:20.931Z,27.80
2022-08-01T02:32:32.456Z,27.80
2022-08-01T02:36:32.353Z,27.80
2022-08-01T02:39:05.011Z,27.80
2022-08-01T02:42:10.168Z,27.80
2022-08-01T02:45:14.670Z,27.70
2022-08-01T02:48:19.749Z,27.70
2022-08-01T02:51:24.679Z,27.70
2022-08-01T02:54:27.856Z,27.70
2022-08-01T02:57:45.467Z,27.70
2022-08-01T03:00:55.377Z,27.70
2022-08-01T03:03:58.509Z,27.70
2022-08-01T03:07:04.047Z,27.70
2022-08-01T03:10:06.964Z,27.70
2022-08-01T03:13:10.929Z,27.70
2022-08-01T03:16:14.157Z,27.70
2022-08-01T03:19:19.273Z,27.60
2022-08-01T03:22:25.644Z,27.60
2022-08-01T03:25:30.198Z,27.60
2022-08-01T03:28:33.008Z,27.60
2022-08-01T03:31:37.537Z,27.60
2022-08-01T03:34:39.781Z,27.60
2022-08-01T03:38:14.823Z,27.60
2022-08-01T03:41:16.951Z,27.60
2022-08-01T03:44:25.196Z,27.60
2022-08-01T03:47:40.778Z,27.60
2022-08-01T03:50:56.173Z,27.50
2022-08-01T03:54:01.780Z,27.60
2022-08-01T03:57:04.919Z,27.60
2022-08-01T04:00:11.175Z,27.50
2022-08-01T04:03:17.312Z,27.50
2022-08-01T04:06:19.541Z,27.50
2022-08-01T04:09:22.921Z,27.50
2022-08-01T04:12:25.353Z,27.50
2022-08-01T04:15:27.586Z,27.50
2022-08-01T04:18:37.937Z,27.50
2022-08-01T04:21:40.117Z,27.50
2022-08-01T04:24:56.135Z,27.50
2022-08-01T04:28:01.394Z,27.50
2022-08-01T04:31:06.752Z,27.50
2022-08-01T04:34:11.138Z,27.50
2022-08-01T04:37:17.445Z,27.50
2022-08-01T04:40:22.973Z,27.50
2022-08-01T04:43:25.232Z,27.50
2022-08-01T04:46:28.758Z,27.40
2022-08-01T04:49:33.244Z,27.50
2022-08-01T04:52:52.418Z,27.40
2022-08-01T04:55:54.896Z,27.40
2022-08-01T04:59:20.467Z,27.40
2022-08-01T05:02:22.745Z,27.40
2022-08-01T05:05:27.280Z,27.40
2022-08-01T05:08:29.538Z,27.40
2022-08-01T05:11:31.829Z,27.40
2022-08-01T05:14:34.302Z,27.40
2022-08-01T05:17:36.876Z,27.40
2022-08-01T05:20:39.095Z,27.40
2022-08-01T05:23:42.945Z,27.40
2022-08-01T05:26:45.739Z,27.30
2022-08-01T05:29:50.244Z,27.30
2022-08-01T05:32:52.597Z,27.40
2022-08-01T05:35:54.730Z,27.30
2022-08-01T05:38:57.213Z,27.30
2022-08-01T05:42:09.503Z,27.40
2022-08-01T05:45:11.779Z,27.30
2022-08-01T05:48:13.929Z,27.30
2022-08-01T05:51:16.057Z,27.40
2022-08-01T05:54:18.149Z,27.30
2022-08-01T05:57:20.673Z,27.30
2022-08-01T06:00:22.942Z,27.30
2022-08-01T06:03:25.484Z,27.40
2022-08-01T06:06:27.657Z,27.30
2022-08-01T06:09:31.787Z,27.40
2022-08-01T06:12:35.784Z,27.40
2022-08-01T06:15:38.134Z,27.30
2022-08-01T06:18:40.304Z,27.30
2022-08-01T06:21:42.392Z,27.30
2022-08-01T06:24:44.512Z,27.30
2022-08-01T06:27:46.605Z,27.40
2022-08-01T06:30:48.873Z,27.30
2022-08-01T06:33:51.020Z,27.30
2022-08-01T06:36:53.452Z,27.30
2022-08-01T06:39:55.590Z,27.40
2022-08-01T06:42:57.736Z,27.40
2022-08-01T06:45:59.929Z,27.40
2022-08-01T06:49:02.155Z,27.40
2022-08-01T06:52:05.535Z,27.40
2022-08-01T06:55:08.502Z,27.40
2022-08-01T06:58:10.884Z,27.40
2022-08-01T07:01:13.133Z,27.50
2022-08-01T07:04:18.373Z,27.50
2022-08-01T07:07:20.496Z,27.50
2022-08-01T07:10:22.774Z,27.50
2022-08-01T07:13:26.044Z,27.50
2022-08-01T07:16:46.617Z,27.50
2022-08-01T07:19:49.150Z,27.50
2022-08-01T07:22:51.357Z,27.50
2022-08-01T07:25:55.878Z,27.60
2022-08-01T07:29:00.274Z,27.60
2022-08-01T07:32:03.160Z,27.60
2022-08-01T07:35:05.836Z,27.60
2022-08-01T07:38:12.661Z,27.60
2022-08-01T07:41:15.583Z,27.60
2022-08-01T07:44:23.253Z,27.70
2022-08-01T07:47:28.429Z,27.70
2022-08-01T07:50:31.113Z,27.70
2022-08-01T07:53:36.338Z,27.80
2022-08-01T07:56:38.509Z,27.80
2022-08-01T07:59:40.612Z,27.80
2022-08-01T08:02:42.944Z,27.80
2022-08-01T08:05:58.878Z,27.80
2022-08-01T08:09:02.425Z,27.90
2022-08-01T08:12:05.103Z,27.90
2022-08-01T08:15:08.019Z,27.90
2022-08-01T08:18:10.210Z,27.90
2022-08-01T08:21:12.374Z,27.90
2022-08-01T08:24:27.496Z,27.90
2022-08-01T08:27:29.726Z,28.00
2022-08-01T08:30:31.975Z,28.00
2022-08-01T08:33:34.095Z,28.10
2022-08-01T08:36:36.310Z,28.00
2022-08-01T08:39:41.970Z,28.10
2022-08-01T08:42:45.383Z,28.10
2022-08-01T08:45:59.451Z,28.10
2022-08-01T08:49:04.880Z,28.10
2022-08-01T08:52:10.732Z,28.20
2022-08-01T08:55:15.669Z,28.20
2022-08-01T08:58:19.290Z,28.20
2022-08-01T09:01:22.961Z,28.30
2022-08-01T09:04:26.948Z,28.30
2022-08-01T09:07:29.269Z,28.30
2022-08-01T09:10:31.519Z,28.30
2022-08-01T09:13:34.480Z,28.30
2022-08-01T09:16:38.522Z,28.40
2022-08-01T09:19:52.513Z,28.40
2022-08-01T09:22:57.162Z,28.40
2022-08-01T09:25:59.621Z,28.40
2022-08-01T09:29:05.704Z,28.40
2022-08-01T09:32:14.061Z,28.50
2022-08-01T09:35:36.425Z,28.50
2022-08-01T09:38:50.924Z,28.50
2022-08-01T09:41:55.095Z,28.50
2022-08-01T09:44:58.873Z,28.50
2022-08-01T09:48:08.332Z,28.50
2022-08-01T09:51:59.396Z,28.50
2022-08-01T09:55:02.237Z,28.60
2022-08-01T09:58:05.702Z,28.60
2022-08-01T10:01:08.782Z,28.60
2022-08-01T10:04:17.419Z,28.60
2022-08-01T10:07:20.962Z,28.60
2022-08-01T10:10:31.451Z,28.60
2022-08-01T10:13:36.461Z,28.60
2022-08-01T10:16:40.206Z,28.60
2022-08-01T10:19:44.417Z,28.70
2022-08-01T10:22:48.163Z,28.70
2022-08-01T10:25:56.054Z,28.70
2022-08-01T10:28:58.739Z,28.70
2022-08-01T10:32:05.813Z,28.70
2022-08-01T10:35:14.793Z,28.70
2022-08-01T10:38:18.241Z,28.70
2022-08-01T10:41:22.082Z,28.70
2022-08-01T10:44:29.991Z,28.70
2022-08-01T10:47:57.450Z,28.70
2022-08-01T10:51:03.306Z,28.70
2022-08-01T10:54:09.825Z,28.70
2022-08-01T10:57:13.281Z,28.70
2022-08-01T11:00:22.240Z,28.70
2022-08-01T11:03:55.452Z,28.80
2022-08-01T11:07:05.448Z,28.70
2022-08-01T11:10:40.959Z,28.80
2022-08-01T11:14:26.097Z,28.80
2022-08-01T11:17:31.708Z,28.80
2022-08-01T11:21:58.868Z,28.80
2022-08-01T11:24:50.914Z,28.80
2022-08-01T11:28:15.547Z,28.80
2022-08-01T11:31:17.753Z,28.80
2022-08-01T11:34:21.305Z,28.90
2022-08-01T11:37:44.374Z,28.90
2022-08-01T11:40:46.537Z,28.90
2022-08-01T11:44:09.069Z,28.90
2022-08-01T11:47:13.330Z,28.80
2022-08-01T11:50:37.288Z,28.90
2022-08-01T11:53:53.656Z,28.90
2022-08-01T11:57:00.055Z,28.90
2022-08-01T12:00:16.679Z,28.90
2022-08-01T12:03:33.256Z,29.00
2022-08-01T12:06:36.211Z,29.10
2022-08-01T12:09:38.309Z,29.20
2022-08-01T12:12:44.539Z,29.30
2022-08-01T12:15:47.448Z,29.30
2022-08-01T12:18:49.904Z,29.40
2022-08-01T12:22:15.036Z,29.40
2022-08-01T12:25:18.796Z,29.50
2022-08-01T12:28:20.999Z,29.50
2022-08-01T12:31:33.908Z,29.60
2022-08-01T12:34:36.484Z,29.60
2022-08-01T12:37:40.261Z,29.60
2022-08-01T12:40:45.600Z,29.70
2022-08-01T12:43:49.003Z,29.70
2022-08-01T12:46:53.592Z,29.70
2022-08-01T12:49:55.949Z,29.70
2022-08-01T12:52:58.831Z,29.80
2022-08-01T12:56:04.152Z,29.80
2022-08-01T12:59:30.550Z,29.80
2022-08-01T13:02:35.914Z,29.80
2022-08-01T13:05:52.576Z,29.80
2022-08-01T13:08:54.901Z,29.80
2022-08-01T13:12:04.675Z,29.90
2022-08-01T13:15:21.177Z,29.80
2022-08-01T13:18:24.770Z,29.90
2022-08-01T13:21:29.420Z,29.90
2022-08-01T13:24:51.537Z,29.90
2022-08-01T13:28:22.585Z,29.90
2022-08-01T13:31:34.576Z,29.90
2022-08-01T13:34:36.743Z,29.90
2022-08-01T13:37:40.685Z,29.90
2022-08-01T13:40:42.792Z,30.00
2022-08-01T13:43:58.216Z,30.00
2022-08-01T13:47:02.581Z,30.00
2022-08-01T13:50:18.824Z,30.00
2022-08-01T13:53:21.219Z,30.00
2022-08-01T13:56:28.996Z,30.00
2022-08-01T13:59:31.149Z,30.00
2022-08-01T14:02:33.458Z,30.00
2022-08-01T14:05:35.550Z,30.00
2022-08-01T14:08:37.781Z,30.00
2022-08-01T14:11:50.264Z,30.00
2022-08-01T14:14:53.254Z,30.00
2022-08-01T14:17:55.526Z,30.00
2022-08-01T14:21:01.250Z,30.00
2022-08-01T14:24:08.589Z,30.00
2022-08-01T14:27:10.750Z,30.00
2022-08-01T14:30:13.602Z,30.00
2022-08-01T14:33:15.789Z,30.10
2022-08-01T14:36:30.283Z,30.00
2022-08-01T14:39:33.043Z,30.10
2022-08-01T14:42:35.192Z,30.00
2022-08-01T14:45:37.350Z,30.00
2022-08-01T14:48:39.982Z,30.00
2022-08-01T14:51:42.251Z,30.00
2022-08-01T14:54:44.353Z,30.10
2022-08-01T14:57:46.529Z,30.10
2022-08-01T15:00:48.866Z,30.10
2022-08-01T15:03:51.739Z,30.10
2022-08-01T15:06:54.062Z,30.10
2022-08-01T15:09:57.263Z,30.10
2022-08-01T15:13:01.198Z,30.10
2022-08-01T15:16:03.775Z,30.10
2022-08-01T15:19:06.150Z,30.10
2022-08-01T15:22:08.676Z,30.10
2022-08-01T15:25:11.347Z,30.10
2022-08-01T15:28:13.534Z,30.10
2022-08-01T15:31:15.741Z,30.00
2022-08-01T15:34:17.954Z,30.00
2022-08-01T15:37:20.158Z,30.00
2022-08-01T15:40:22.369Z,30.00
2022-08-01T15:43:24.489Z,29.90
2022-08-01T15:46:30.211Z,29.90
2022-08-01T15:49:32.865Z,29.90
2022-08-01T15:52:35.089Z,29.90
2022-08-01T15:55:38.449Z,29.90
2022-08-01T15:58:40.968Z,29.90
2022-08-01T16:01:43.374Z,29.80
2022-08-01T16:04:45.531Z,29.80
2022-08-01T16:07:59.710Z,29.80
2022-08-01T16:11:03.944Z,29.80
2022-08-01T16:14:06.870Z,29.80
2022-08-01T16:17:09.015Z,29.70
2022-08-01T16:20:11.450Z,29.80
2022-08-01T16:23:18.070Z,29.70
2022-08-01T16:26:27.647Z,29.70
2022-08-01T16:29:32.043Z,29.70
2022-08-01T16:32:40.978Z,29.70
2022-08-01T16:35:53.506Z,29.70
2022-08-01T16:38:56.348Z,29.70
2022-08-01T16:41:58.579Z,29.70
2022-08-01T16:45:02.060Z,29.60
2022-08-01T16:48:06.211Z,29.70
2022-08-01T16:51:08.459Z,29.70
2022-08-01T16:54:25.689Z,29.70
2022-08-01T16:57:28.689Z,29.60
2022-08-01T17:00:30.860Z,29.60
2022-08-01T17:03:51.229Z,29.60
2022-08-01T17:06:55.042Z,29.60
2022-08-01T17:09:57.300Z,29.60
2022-08-01T17:12:59.458Z,29.60
2022-08-01T17:16:01.597Z,29.60
2022-08-01T17:19:05.016Z,29.60
2022-08-01T17:22:07.111Z,29.60
2022-08-01T17:25:16.059Z,29.50
2022-08-01T17:28:18.489Z,29.60
2022-08-01T17:31:20.613Z,29.60
2022-08-01T17:34:22.727Z,29.50
2022-08-01T17:37:25.657Z,29.60
2022-08-01T17:40:40.114Z,29.50
2022-08-01T17:43:43.272Z,29.50
2022-08-01T17:46:45.459Z,29.60
2022-08-01T17:49:54.708Z,29.50
2022-08-01T17:52:57.507Z,29.50
2022-08-01T17:56:02.618Z,29.50
2022-08-01T17:59:04.865Z,29.50
2022-08-01T18:02:07.340Z,29.50
2022-08-01T18:05:11.204Z,29.50
2022-08-01T18:08:18.660Z,29.50
2022-08-01T18:11:21.150Z,29.50
2022-08-01T18:14:39.913Z,29.50
2022-08-01T18:17:43.494Z,29.50
2022-08-01T18:20:48.702Z,29.50
2022-08-01T18:23:51.917Z,29.40
2022-08-01T18:26:54.980Z,29.40
2022-08-01T18:29:57.188Z,29.40
2022-08-01T18:32:59.836Z,29.50
2022-08-01T18:36:04.179Z,29.50
2022-08-01T18:39:10.516Z,29.40
2022-08-01T18:42:15.329Z,29.50
2022-08-01T18:45:17.974Z,29.50
2022-08-01T18:48:20.410Z,29.50
2022-08-01T18:51:22.760Z,29.40
2022-08-01T18:54:25.757Z,29.40
2022-08-01T18:57:27.968Z,29.40
2022-08-01T19:00:30.346Z,29.40
2022-08-01T19:03:32.770Z,29.40
2022-08-01T19:06:35.106Z,29.40
2022-08-01T19:09:37.688Z,29.40
2022-08-01T19:12:40.413Z,29.40
2022-08-01T19:15:43.510Z,29.40
2022-08-01T19:18:46.351Z,29.40
2022-08-01T19:21:48.672Z,29.40
2022-08-01T19:24:50.865Z,29.30
2022-08-01T19:27:55.347Z,29.30
2022-08-01T19:30:59.582Z,29.40
2022-08-01T19:34:05.049Z,29.40
2022-08-01T19:37:08.259Z,29.30
2022-08-01T19:40:11.040Z,29.30
2022-08-01T19:43:33.382Z,29.30
2022-08-01T19:46:40.891Z,29.30
2022-08-01T19:49:43.189Z,29.30
2022-08-01T19:52:47.367Z,29.30
2022-08-01T19:55:51.533Z,29.30
2022-08-01T19:59:00.203Z,29.30
2022-08-01T20:02:03.003Z,29.20
2022-08-01T20:05:05.754Z,29.30
2022-08-01T20:08:08.685Z,29.30
2022-08-01T20:11:14.654Z,29.20
2022-08-01T20:14:20.188Z,29.30
2022-08-01T20:17:23.590Z,29.30
2022-08-01T20:20:27.124Z,29.20
2022-08-01T20:23:31.310Z,29.30
2022-08-01T20:26:35.171Z,29.30
2022-08-01T20:29:37.671Z,29.20
2022-08-01T20:32:40.873Z,29.20
2022-08-01T20:35:53.410Z,29.20
2022-08-01T20:38:57.604Z,29.20
2022-08-01T20:42:01.453Z,29.20
2022-08-01T20:45:05.727Z,29.20
2022-08-01T20:48:08.657Z,29.20
2022-08-01T20:51:16.859Z,29.20
2022-08-01T20:54:19.812Z,29.20
2022-08-01T20:57:25.465Z,29.10
2022-08-01T21:00:28.353Z,29.20
2022-08-01T21:03:42.047Z,29.10
2022-08-01T21:06:54.344Z,29.10
2022-08-01T21:10:07.995Z,29.10
2022-08-01T21:13:23.502Z,29.10
2022-08-01T21:16:30.292Z,29.10
2022-08-01T21:19:35.194Z,29.10
2022-08-01T21:22:57.088Z,29.10
2022-08-01T21:26:01.424Z,29.10
2022-08-01T21:29:07.629Z,29.10
2022-08-01T21:32:12.719Z,29.10
2022-08-01T21:35:18.700Z,29.10
2022-08-01T21:38:21.878Z,29.00
2022-08-01T21:42:04.849Z,29.00
2022-08-01T21:44:48.873Z,29.10
2022-08-01T21:47:51.919Z,29.00
2022-08-01T21:51:03.836Z,29.00
2022-08-01T21:54:24.198Z,29.00
2022-08-01T21:57:43.069Z,29.00
2022-08-01T22:00:54.335Z,29.00
2022-08-01T22:03:59.415Z,29.00
2022-08-01T22:07:03.564Z,29.00
2022-08-01T22:10:06.944Z,29.00
2022-08-01T22:13:10.213Z,29.00
2022-08-01T22:16:15.511Z,29.00
2022-08-01T22:19:44.501Z,29.00
2022-08-01T22:22:52.544Z,29.00
2022-08-01T22:25:56.135Z,28.90
2022-08-01T22:28:59.484Z,28.90
2022-08-01T22:32:03.441Z,28.90
2022-08-01T22:35:08.387Z,28.90
2022-08-01T22:38:10.789Z,28.90
2022-08-01T22:41:18.560Z,28.90
2022-08-01T22:44:30.093Z,28.90
2022-08-01T22:47:53.672Z,28.90
2022-08-01T22:51:01.949Z,28.90
2022-08-01T22:54:11.537Z,28.90
2022-08-01T22:57:49.916Z,28.90
2022-08-01T23:01:02.175Z,28.90
2022-08-01T23:04:05.525Z,28.90
2022-08-01T23:07:09.164Z,28.80
2022-08-01T23:10:11.363Z,28.80
2022-08-01T23:13:15.786Z,28.80
2022-08-01T23:16:18.413Z,28.80
2022-08-01T23:19:21.809Z,28.80
2022-08-01T23:22:25.488Z,28.80
2022-08-01T23:25:27.913Z,28.80
2022-08-01T23:28:30.140Z,28.80
2022-08-01T23:32:10.911Z,28.80
2022-08-01T23:34:54.554Z,28.80
2022-08-01T23:38:02.305Z,28.80
2022-08-01T23:41:14.989Z,28.80
2022-08-01T23:44:17.134Z,28.80
2022-08-01T23:47:19.242Z,28.80
2022-08-01T23:50:22.035Z,28.80
2022-08-01T23:53:24.416Z,28.80
2022-08-01T23:56:33.278Z,28.80
2022-08-01T23:59:53.556Z,28.70
